sensor_id;sensor_type;location;lat;lon;timestamp;temperature;humidity
47921;DHT22;33686;48.770;9.186;2022-12-18T06:17:06;-9.40;99.90
47921;DHT22;33686;48.770;9.186;2022-12-18T06:19:32;-9.30;99.90
47921;DHT22;33686;48.770;9.186;2022-12-18T06:21:57;-9.40;99.90
47921;DHT22;33686;48.770;9.186;2022-12-18T06:24:24;-9.50;99.90
47921;DHT22;33686;48.770;9.186;2022-12-18T06:26:49;-9.50;99.90
47921;DHT22;33686;48.770;9.186;2022-12-18T06:29:15;-9.40;99.90
47921;DHT22;33686;48.770;9.186;2022-12-18T06:31:40;-9.10;99.90
47921;DHT22;33686;48.770;9.186;2022-12-18T06:34:06;-8.90;99.90
47921;DHT22;33686;48.770;9.186;2022-12-18T06:36:31;-8.90;99.90
47921;DHT22;33686;48.770;9.186;2022-12-18T06:38:57;-8.80;99.90
47921;DHT22;33686;48.770;9.186;2022-12-18T06:41:23;-9.10;99.90
47921;DHT22;33686;48.770;9.186;2022-12-18T06:43:49;-9.30;99.90
47921;DHT22;33686;48.770;9.186;2022-12-18T06:46:14;-9.40;99.90
47921;DHT22;33686;48.770;9.186;2022-12-18T06:48:40;-9.30;99.90
47921;DHT22;33686;48.770;9.186;2022-12-18T06:51:06;-9.00;99.90
47921;DHT22;33686;48.770;9.186;2022-12-18T06:53:32;-8.90;99.90
47921;DHT22;33686;48.770;9.186;2022-12-18T06:56:01;-9.10;99.90
47921;DHT22;33686;48.770;9.186;2022-12-18T06:58:27;-9.00;99.90
47921;DHT22;33686;48.770;9.186;2022-12-18T07:00:53;-9.00;99.90
47921;DHT22;33686;48.770;9.186;2022-12-18T07:03:18;-9.10;99.90
47921;DHT22;33686;48.770;9.186;2022-12-18T07:05:44;-9.00;99.90
47921;DHT22;33686;48.770;9.186;2022-12-18T07:08:10;-9.10;99.90
47921;DHT22;33686;48.770;9.186;2022-12-18T07:10:42;-9.10;99.90
47921;DHT22;33686;48.770;9.186;2022-12-18T07:13:08;-8.90;99.90
47921;DHT22;33686;48.770;9.186;2022-12-18T07:15:33;-8.70;99.90
47921;DHT22;33686;48.770;9.186;2022-12-18T07:17:59;-8.90;99.90
47921;DHT22;33686;48.770;9.186;2022-12-18T07:20:24;-8.80;99.90
47921;DHT22;33686;48.770;9.186;2022-12-18T07:22:50;-8.90;99.90
47921;DHT22;33686;48.770;9.186;2022-12-18T07:25:15;-8.90;99.90
47921;DHT22;33686;48.770;9.186;2022-12-18T07:27:41;-9.00;99.90
47921;DHT22;33686;48.770;9.186;2022-12-18T07:30:07;-9.00;99.90
47921;DHT22;33686;48.770;9.186;2022-12-18T07:32:32;-9.00;99.90
47921;DHT22;33686;48.770;9.186;2022-12-18T07:34:58;-9.00;99.90
47921;DHT22;33686;48.770;9.186;2022-12-18T07:37:23;-9.00;99.90
47921;DHT22;33686;48.770;9.186;2022-12-18T07:39:49;-8.80;99.90
47921;DHT22;33686;48.770;9.186;2022-12-18T07:42:15;-8.60;99.90
47921;DHT22;33686;48.770;9.186;2022-12-18T07:44:56;-8.60;99.90
47921;DHT22;33686;48.770;9.186;2022-12-18T07:47:21;-8.60;99.90
47921;DHT22;33686;48.770;9.186;2022-12-18T07:49:47;-8.50;99.90
47921;DHT22;33686;48.770;9.186;2022-12-18T07:52:13;-8.50;99.90
47921;DHT22;33686;48.770;9.186;2022-12-18T07:54:38;-8.40;99.90
47921;DHT22;33686;48.770;9.186;2022-12-18T07:57:04;-8.10;99.90
47921;DHT22;33686;48.770;9.186;2022-12-18T07:59:30;-8.10;99.90
47921;DHT22;33686;48.770;9.186;2022-12-18T08:01:55;-8.00;99.90
47921;DHT22;33686;48.770;9.186;2022-12-18T08:04:21;-7.90;99.90
47921;DHT22;33686;48.770;9.186;2022-12-18T08:06:46;-7.80;99.90
47921;DHT22;33686;48.770;9.186;2022-12-18T08:09:12;-7.20;99.90
47921;DHT22;33686;48.770;9.186;2022-12-18T08:11:38;-6.00;99.90
47921;DHT22;33686;48.770;9.186;2022-12-18T08:14:03;-4.40;99.90
47921;DHT22;33686;48.770;9.186;2022-12-18T08:16:29;-3.40;99.90
47921;DHT22;33686;48.770;9.186;2022-12-18T08:18:55;-3.00;99.90
47921;DHT22;33686;48.770;9.186;2022-12-18T08:21:25;-4.80;99.90
47921;DHT22;33686;48.770;9.186;2022-12-18T08:23:52;-5.60;99.90
47921;DHT22;33686;48.770;9.186;2022-12-18T08:26:18;-5.90;99.90
47921;DHT22;33686;48.770;9.186;2022-12-18T08:28:43;-6.30;99.90
47921;DHT22;33686;48.770;9.186;2022-12-18T08:31:09;-6.50;99.90
47921;DHT22;33686;48.770;9.186;2022-12-18T08:33:35;-6.40;99.90
47921;DHT22;33686;48.770;9.186;2022-12-18T08:36:03;-4.10;99.90
47921;DHT22;33686;48.770;9.186;2022-12-18T08:38:28;-2.70;99.90
47921;DHT22;33686;48.770;9.186;2022-12-18T08:41:02;-2.00;99.90
47921;DHT22;33686;48.770;9.186;2022-12-18T08:43:28;-2.80;99.90
47921;DHT22;33686;48.770;9.186;2022-12-18T08:46:12;-3.80;99.90
47921;DHT22;33686;48.770;9.186;2022-12-18T08:48:38;-4.70;99.90
47921;DHT22;33686;48.770;9.186;2022-12-18T08:51:04;-4.90;99.90
47921;DHT22;33686;48.770;9.186;2022-12-18T08:53:30;-4.80;99.90
47921;DHT22;33686;48.770;9.186;2022-12-18T08:55:56;-4.70;99.90
47921;DHT22;33686;48.770;9.186;2022-12-18T08:58:22;-4.90;99.90
47921;DHT22;33686;48.770;9.186;2022-12-18T09:00:47;-4.80;99.90
47921;DHT22;33686;48.770;9.186;2022-12-18T09:03:18;-4.90;99.90
47921;DHT22;33686;48.770;9.186;2022-12-18T09:05:45;-5.00;99.90
47921;DHT22;33686;48.770;9.186;2022-12-18T09:08:12;-4.90;99.90
47921;DHT22;33686;48.770;9.186;2022-12-18T09:10:45;-4.90;99.90
47921;DHT22;33686;48.770;9.186;2022-12-18T09:13:12;-5.00;99.90
47921;DHT22;33686;48.770;9.186;2022-12-18T09:15:52;-5.50;99.90
47921;DHT22;33686;48.770;9.186;2022-12-18T09:18:19;-5.20;99.90
47921;DHT22;33686;48.770;9.186;2022-12-18T09:20:45;-5.20;99.90
47921;DHT22;33686;48.770;9.186;2022-12-18T09:23:11;-5.30;99.90
47921;DHT22;33686;48.770;9.186;2022-12-18T09:25:37;-5.30;99.90
47921;DHT22;33686;48.770;9.186;2022-12-18T09:28:06;-5.60;99.90
47921;DHT22;33686;48.770;9.186;2022-12-18T09:30:31;-5.40;99.90
47921;DHT22;33686;48.770;9.186;2022-12-18T09:32:59;-5.60;99.90
47921;DHT22;33686;48.770;9.186;2022-12-18T09:35:25;-5.60;99.90
47921;DHT22;33686;48.770;9.186;2022-12-18T09:37:50;-5.50;99.90
47921;DHT22;33686;48.770;9.186;2022-12-18T09:40:18;-5.60;99.90
47921;DHT22;33686;48.770;9.186;2022-12-18T09:42:45;-5.50;99.90
47921;DHT22;33686;48.770;9.186;2022-12-18T09:45:12;-5.50;99.90
47921;DHT22;33686;48.770;9.186;2022-12-18T09:47:39;-5.70;99.90
47921;DHT22;33686;48.770;9.186;2022-12-18T09:50:26;-5.60;99.90
47921;DHT22;33686;48.770;9.186;2022-12-18T09:52:56;-5.30;99.90
47921;DHT22;33686;48.770;9.186;2022-12-18T09:55:39;-5.30;99.90
47921;DHT22;33686;48.770;9.186;2022-12-18T10:00:34;-5.10;99.90
47921;DHT22;33686;48.770;9.186;2022-12-18T10:03:01;-5.00;99.90
47921;DHT22;33686;48.770;9.186;2022-12-18T10:08:02;-4.80;99.90
47921;DHT22;33686;48.770;9.186;2022-12-18T10:10:41;-4.70;99.90
47921;DHT22;33686;48.770;9.186;2022-12-18T10:15:39;-4.60;99.90
47921;DHT22;33686;48.770;9.186;2022-12-18T10:20:51;-4.40;99.90
47921;DHT22;33686;48.770;9.186;2022-12-18T10:23:20;-4.30;99.90
47921;DHT22;33686;48.770;9.186;2022-12-18T10:28:20;-4.40;99.90
47921;DHT22;33686;48.770;9.186;2022-12-18T10:30:46;-4.40;99.90
47921;DHT22;33686;48.770;9.186;2022-12-18T10:33:12;-4.30;99.90
47921;DHT22;33686;48.770;9.186;2022-12-18T10:35:40;-4.40;99.90
47921;DHT22;33686;48.770;9.186;2022-12-18T10:51:03;-4.40;99.90
47921;DHT22;33686;48.770;9.186;2022-12-18T10:53:29;-4.30;99.90
47921;DHT22;33686;48.770;9.186;2022-12-18T10:55:56;-4.10;99.90
47921;DHT22;33686;48.770;9.186;2022-12-18T10:58:27;-4.10;99.90
47921;DHT22;33686;48.770;9.186;2022-12-18T11:03:32;-3.90;99.90
47921;DHT22;33686;48.770;9.186;2022-12-18T11:06:10;-3.90;99.90
47921;DHT22;33686;48.770;9.186;2022-12-18T11:08:37;-3.90;99.90
47921;DHT22;33686;48.770;9.186;2022-12-18T11:11:03;-3.90;99.90
47921;DHT22;33686;48.770;9.186;2022-12-18T11:13:30;-3.80;99.90
47921;DHT22;33686;48.770;9.186;2022-12-18T11:15:57;-3.60;99.90
47921;DHT22;33686;48.770;9.186;2022-12-18T11:18:31;-3.40;99.90
47921;DHT22;33686;48.770;9.186;2022-12-18T11:21:10;-3.30;99.90
47921;DHT22;33686;48.770;9.186;2022-12-18T11:23:37;-3.10;99.90
47921;DHT22;33686;48.770;9.186;2022-12-18T11:26:11;-3.20;99.90
47921;DHT22;33686;48.770;9.186;2022-12-18T11:28:46;-3.20;99.90
47921;DHT22;33686;48.770;9.186;2022-12-18T11:31:28;-3.00;99.90
47921;DHT22;33686;48.770;9.186;2022-12-18T11:36:22;-2.80;99.90
47921;DHT22;33686;48.770;9.186;2022-12-18T11:38:49;-2.70;99.90
47921;DHT22;33686;48.770;9.186;2022-12-18T11:41:34;-2.90;99.90
47921;DHT22;33686;48.770;9.186;2022-12-18T11:44:27;-2.90;99.90
47921;DHT22;33686;48.770;9.186;2022-12-18T11:47:02;-2.90;99.90
47921;DHT22;33686;48.770;9.186;2022-12-18T11:49:33;-2.90;99.90
47921;DHT22;33686;48.770;9.186;2022-12-18T11:52:16;-3.00;99.90
47921;DHT22;33686;48.770;9.186;2022-12-18T11:54:43;-2.90;99.90
47921;DHT22;33686;48.770;9.186;2022-12-18T12:05:56;-2.70;99.90
47921;DHT22;33686;48.770;9.186;2022-12-18T12:08:49;-2.80;99.90
47921;DHT22;33686;48.770;9.186;2022-12-18T12:12:06;-2.90;99.90
47921;DHT22;33686;48.770;9.186;2022-12-18T12:20:14;-2.90;99.90
47921;DHT22;33686;48.770;9.186;2022-12-18T12:25:39;-2.90;99.90
47921;DHT22;33686;48.770;9.186;2022-12-18T12:28:35;-3.00;99.90
47921;DHT22;33686;48.770;9.186;2022-12-18T12:31:19;-3.00;99.90
47921;DHT22;33686;48.770;9.186;2022-12-18T12:33:59;-2.80;99.90
47921;DHT22;33686;48.770;9.186;2022-12-18T12:39:05;-2.70;99.90
47921;DHT22;33686;48.770;9.186;2022-12-18T12:41:33;-2.70;99.90
47921;DHT22;33686;48.770;9.186;2022-12-18T12:44:28;-2.60;99.90
47921;DHT22;33686;48.770;9.186;2022-12-18T12:46:56;-2.50;99.90
47921;DHT22;33686;48.770;9.186;2022-12-18T12:49:27;-2.60;99.90
47921;DHT22;33686;48.770;9.186;2022-12-18T12:52:07;-2.70;99.90
47921;DHT22;33686;48.770;9.186;2022-12-18T12:54:35;-2.60;99.90
47921;DHT22;33686;48.770;9.186;2022-12-18T13:04:41;-2.10;99.90
47921;DHT22;33686;48.770;9.186;2022-12-18T13:10:12;-1.90;99.90
47921;DHT22;33686;48.770;9.186;2022-12-18T13:12:22;-1.80;99.90
47921;DHT22;33686;48.770;9.186;2022-12-18T13:15:13;-1.80;99.90
47921;DHT22;33686;48.770;9.186;2022-12-18T13:17:44;-1.90;99.90
47921;DHT22;33686;48.770;9.186;2022-12-18T13:20:11;-1.80;99.90
47921;DHT22;33686;48.770;9.186;2022-12-18T13:28:05;-1.60;99.90
47921;DHT22;33686;48.770;9.186;2022-12-18T13:35:42;-1.40;99.90
47921;DHT22;33686;48.770;9.186;2022-12-18T13:46:27;-1.50;99.90
47921;DHT22;33686;48.770;9.186;2022-12-18T13:48:36;-1.50;99.90
47921;DHT22;33686;48.770;9.186;2022-12-18T13:51:06;-1.40;99.90
47921;DHT22;33686;48.770;9.186;2022-12-18T13:53:34;-1.60;99.90
47921;DHT22;33686;48.770;9.186;2022-12-18T13:56:01;-1.50;99.90
47921;DHT22;33686;48.770;9.186;2022-12-18T13:58:27;-1.60;99.90
47921;DHT22;33686;48.770;9.186;2022-12-18T14:00:53;-1.60;99.90
47921;DHT22;33686;48.770;9.186;2022-12-18T14:03:20;-1.60;99.90
47921;DHT22;33686;48.770;9.186;2022-12-18T14:05:46;-1.70;99.90
47921;DHT22;33686;48.770;9.186;2022-12-18T14:08:17;-1.80;99.90
47921;DHT22;33686;48.770;9.186;2022-12-18T14:10:44;-1.80;99.90
47921;DHT22;33686;48.770;9.186;2022-12-18T14:13:10;-1.70;99.90
47921;DHT22;33686;48.770;9.186;2022-12-18T14:15:40;-1.70;99.90
47921;DHT22;33686;48.770;9.186;2022-12-18T14:20:51;-1.80;99.90
47921;DHT22;33686;48.770;9.186;2022-12-18T14:23:27;-1.80;99.90
47921;DHT22;33686;48.770;9.186;2022-12-18T14:25:53;-1.90;99.90
47921;DHT22;33686;48.770;9.186;2022-12-18T14:28:19;-2.00;99.90
47921;DHT22;33686;48.770;9.186;2022-12-18T14:30:45;-1.90;99.90
47921;DHT22;33686;48.770;9.186;2022-12-18T14:33:12;-1.90;99.90
47921;DHT22;33686;48.770;9.186;2022-12-18T14:35:42;-1.90;99.90
47921;DHT22;33686;48.770;9.186;2022-12-18T14:40:59;-2.00;99.90
47921;DHT22;33686;48.770;9.186;2022-12-18T14:43:25;-2.10;99.90
47921;DHT22;33686;48.770;9.186;2022-12-18T14:45:51;-2.10;99.90
47921;DHT22;33686;48.770;9.186;2022-12-18T14:48:18;-2.10;99.90
47921;DHT22;33686;48.770;9.186;2022-12-18T14:50:53;-2.10;99.90
47921;DHT22;33686;48.770;9.186;2022-12-18T14:53:38;-2.10;99.90
47921;DHT22;33686;48.770;9.186;2022-12-18T14:56:17;-2.10;99.90
47921;DHT22;33686;48.770;9.186;2022-12-18T14:58:53;-2.20;99.90
47921;DHT22;33686;48.770;9.186;2022-12-18T15:01:20;-2.20;99.90
47921;DHT22;33686;48.770;9.186;2022-12-18T15:03:48;-2.40;99.90
47921;DHT22;33686;48.770;9.186;2022-12-18T15:06:55;-2.40;99.90
47921;DHT22;33686;48.770;9.186;2022-12-18T15:09:03;-2.50;99.90
47921;DHT22;33686;48.770;9.186;2022-12-18T15:16:53;-2.70;99.90
47921;DHT22;33686;48.770;9.186;2022-12-18T15:19:21;-2.70;99.90
47921;DHT22;33686;48.770;9.186;2022-12-18T15:21:48;-2.80;99.90
47921;DHT22;33686;48.770;9.186;2022-12-18T15:24:20;-2.90;99.90
47921;DHT22;33686;48.770;9.186;2022-12-18T15:26:48;-3.00;99.90
47921;DHT22;33686;48.770;9.186;2022-12-18T15:29:21;-3.00;99.90
47921;DHT22;33686;48.770;9.186;2022-12-18T15:32:04;-3.10;99.90
47921;DHT22;33686;48.770;9.186;2022-12-18T15:34:32;-3.20;99.90
47921;DHT22;33686;48.770;9.186;2022-12-18T15:36:59;-3.30;99.90
47921;DHT22;33686;48.770;9.186;2022-12-18T15:39:25;-3.30;99.90
47921;DHT22;33686;48.770;9.186;2022-12-18T15:41:51;-3.30;99.90
47921;DHT22;33686;48.770;9.186;2022-12-18T15:44:35;-3.30;99.90
47921;DHT22;33686;48.770;9.186;2022-12-18T15:47:01;-3.30;99.90
47921;DHT22;33686;48.770;9.186;2022-12-18T15:49:26;-3.30;99.90
47921;DHT22;33686;48.770;9.186;2022-12-18T15:51:58;-3.40;99.90
47921;DHT22;33686;48.770;9.186;2022-12-18T15:54:25;-3.40;99.90
47921;DHT22;33686;48.770;9.186;2022-12-18T15:57:12;-3.30;99.90
47921;DHT22;33686;48.770;9.186;2022-12-18T15:59:55;-3.30;99.90
47921;DHT22;33686;48.770;9.186;2022-12-18T16:02:24;-3.40;99.90
47921;DHT22;33686;48.770;9.186;2022-12-18T16:04:52;-3.40;99.90
47921;DHT22;33686;48.770;9.186;2022-12-18T16:07:19;-3.40;99.90
47921;DHT22;33686;48.770;9.186;2022-12-18T16:09:45;-3.40;99.90
47921;DHT22;33686;48.770;9.186;2022-12-18T16:12:22;-3.40;99.90
47921;DHT22;33686;48.770;9.186;2022-12-18T16:14:49;-3.30;99.90
47921;DHT22;33686;48.770;9.186;2022-12-18T16:17:15;-3.40;99.90
47921;DHT22;33686;48.770;9.186;2022-12-18T16:19:42;-3.40;99.90
47921;DHT22;33686;48.770;9.186;2022-12-18T16:22:14;-3.40;99.90
47921;DHT22;33686;48.770;9.186;2022-12-18T16:24:41;-3.40;99.90
47921;DHT22;33686;48.770;9.186;2022-12-18T16:27:08;-3.30;99.90
47921;DHT22;33686;48.770;9.186;2022-12-18T16:29:33;-3.40;99.90
47921;DHT22;33686;48.770;9.186;2022-12-18T16:32:00;-3.40;99.90
47921;DHT22;33686;48.770;9.186;2022-12-18T16:36:54;-3.40;99.90
47921;DHT22;33686;48.770;9.186;2022-12-18T16:39:20;-3.40;99.90
47921;DHT22;33686;48.770;9.186;2022-12-18T16:41:47;-3.30;99.90
47921;DHT22;33686;48.770;9.186;2022-12-18T16:44:13;-3.30;99.90
47921;DHT22;33686;48.770;9.186;2022-12-18T16:46:39;-3.30;99.90
47921;DHT22;33686;48.770;9.186;2022-12-18T16:49:08;-3.30;99.90
47921;DHT22;33686;48.770;9.186;2022-12-18T16:51:34;-3.30;99.90
47921;DHT22;33686;48.770;9.186;2022-12-18T16:54:00;-3.30;99.90
47921;DHT22;33686;48.770;9.186;2022-12-18T16:56:26;-3.30;99.90
47921;DHT22;33686;48.770;9.186;2022-12-18T16:58:56;-3.40;99.90
47921;DHT22;33686;48.770;9.186;2022-12-18T17:01:24;-3.40;99.90
47921;DHT22;33686;48.770;9.186;2022-12-18T17:03:54;-3.40;99.90
47921;DHT22;33686;48.770;9.186;2022-12-18T17:06:24;-3.40;99.90
47921;DHT22;33686;48.770;9.186;2022-12-18T17:08:57;-3.40;99.90
47921;DHT22;33686;48.770;9.186;2022-12-18T17:11:29;-3.30;99.90
47921;DHT22;33686;48.770;9.186;2022-12-18T17:13:55;-3.40;99.90
47921;DHT22;33686;48.770;9.186;2022-12-18T17:16:21;-3.30;99.90
47921;DHT22;33686;48.770;9.186;2022-12-18T17:18:47;-3.20;99.90
47921;DHT22;33686;48.770;9.186;2022-12-18T17:21:15;-3.10;99.90
47921;DHT22;33686;48.770;9.186;2022-12-18T17:23:42;-3.20;99.90
47921;DHT22;33686;48.770;9.186;2022-12-18T17:26:08;-3.20;99.90
47921;DHT22;33686;48.770;9.186;2022-12-18T17:28:36;-3.20;99.90
47921;DHT22;33686;48.770;9.186;2022-12-18T17:31:13;-3.20;99.90
47921;DHT22;33686;48.770;9.186;2022-12-18T17:33:39;-3.20;99.90
47921;DHT22;33686;48.770;9.186;2022-12-18T17:36:06;-3.30;99.90
47921;DHT22;33686;48.770;9.186;2022-12-18T17:38:31;-3.30;99.90
47921;DHT22;33686;48.770;9.186;2022-12-18T17:41:05;-3.40;99.90
47921;DHT22;33686;48.770;9.186;2022-12-18T17:43:31;-3.30;99.90
47921;DHT22;33686;48.770;9.186;2022-12-18T17:46:04;-3.30;99.90
47921;DHT22;33686;48.770;9.186;2022-12-18T17:48:31;-3.30;99.90
47921;DHT22;33686;48.770;9.186;2022-12-18T17:51:04;-3.30;99.90
47921;DHT22;33686;48.770;9.186;2022-12-18T17:53:30;-3.30;99.90
47921;DHT22;33686;48.770;9.186;2022-12-18T17:55:59;-3.30;99.90
47921;DHT22;33686;48.770;9.186;2022-12-18T17:58:30;-3.30;99.90
47921;DHT22;33686;48.770;9.186;2022-12-18T18:00:57;-3.30;99.90
47921;DHT22;33686;48.770;9.186;2022-12-18T18:03:22;-3.30;99.90
47921;DHT22;33686;48.770;9.186;2022-12-18T18:05:48;-3.30;99.90
47921;DHT22;33686;48.770;9.186;2022-12-18T18:08:18;-3.30;99.90
47921;DHT22;33686;48.770;9.186;2022-12-18T18:10:44;-3.20;99.90
47921;DHT22;33686;48.770;9.186;2022-12-18T18:13:25;-3.10;99.90
47921;DHT22;33686;48.770;9.186;2022-12-18T18:16:10;-3.20;99.90
47921;DHT22;33686;48.770;9.186;2022-12-18T18:18:37;-3.10;99.90
47921;DHT22;33686;48.770;9.186;2022-12-18T18:21:05;-3.10;99.90
47921;DHT22;33686;48.770;9.186;2022-12-18T18:23:31;-3.10;99.90
47921;DHT22;33686;48.770;9.186;2022-12-18T18:26:04;-3.00;99.90
47921;DHT22;33686;48.770;9.186;2022-12-18T18:28:31;-2.90;99.90
47921;DHT22;33686;48.770;9.186;2022-12-18T18:30:57;-2.90;99.90
47921;DHT22;33686;48.770;9.186;2022-12-18T18:33:22;-2.90;99.90
47921;DHT22;33686;48.770;9.186;2022-12-18T18:35:48;-3.00;99.90
47921;DHT22;33686;48.770;9.186;2022-12-18T18:38:14;-3.00;99.90
47921;DHT22;33686;48.770;9.186;2022-12-18T18:40:40;-3.00;99.90
47921;DHT22;33686;48.770;9.186;2022-12-18T18:43:06;-3.00;99.90
47921;DHT22;33686;48.770;9.186;2022-12-18T18:45:36;-3.00;99.90
47921;DHT22;33686;48.770;9.186;2022-12-18T18:48:02;-3.00;99.90
47921;DHT22;33686;48.770;9.186;2022-12-18T18:50:28;-2.90;99.90
47921;DHT22;33686;48.770;9.186;2022-12-18T18:52:53;-2.90;99.90
47921;DHT22;33686;48.770;9.186;2022-12-18T18:55:19;-2.90;99.90
47921;DHT22;33686;48.770;9.186;2022-12-18T18:57:44;-2.90;99.90
47921;DHT22;33686;48.770;9.186;2022-12-18T19:00:10;-2.80;99.90
47921;DHT22;33686;48.770;9.186;2022-12-18T19:02:37;-2.80;99.90
47921;DHT22;33686;48.770;9.186;2022-12-18T19:05:02;-2.70;99.90
47921;DHT22;33686;48.770;9.186;2022-12-18T19:07:28;-2.70;99.90
47921;DHT22;33686;48.770;9.186;2022-12-18T19:09:53;-2.60;99.90
47921;DHT22;33686;48.770;9.186;2022-12-18T19:12:19;-2.50;99.90
47921;DHT22;33686;48.770;9.186;2022-12-18T19:15:04;-2.50;99.90
47921;DHT22;33686;48.770;9.186;2022-12-18T19:17:29;-2.50;99.90
47921;DHT22;33686;48.770;9.186;2022-12-18T19:19:55;-2.50;99.90
47921;DHT22;33686;48.770;9.186;2022-12-18T19:22:20;-2.40;99.90
47921;DHT22;33686;48.770;9.186;2022-12-18T19:24:47;-2.40;99.90
47921;DHT22;33686;48.770;9.186;2022-12-18T19:27:12;-2.40;99.90
47921;DHT22;33686;48.770;9.186;2022-12-18T19:29:38;-2.40;99.90
47921;DHT22;33686;48.770;9.186;2022-12-18T19:32:03;-2.40;99.90
47921;DHT22;33686;48.770;9.186;2022-12-18T19:34:29;-2.40;99.90
47921;DHT22;33686;48.770;9.186;2022-12-18T19:36:54;-2.50;99.90
47921;DHT22;33686;48.770;9.186;2022-12-18T19:39:20;-2.40;99.90
47921;DHT22;33686;48.770;9.186;2022-12-18T19:41:46;-2.40;99.90
47921;DHT22;33686;48.770;9.186;2022-12-18T19:44:12;-2.40;99.90
47921;DHT22;33686;48.770;9.186;2022-12-18T19:46:38;-2.40;99.90
47921;DHT22;33686;48.770;9.186;2022-12-18T19:49:04;-2.40;99.90
47921;DHT22;33686;48.770;9.186;2022-12-18T19:51:30;-2.40;99.90
47921;DHT22;33686;48.770;9.186;2022-12-18T19:53:57;-2.40;99.90
47921;DHT22;33686;48.770;9.186;2022-12-18T19:56:23;-2.40;99.90
47921;DHT22;33686;48.770;9.186;2022-12-18T19:58:50;-2.40;99.90
47921;DHT22;33686;48.770;9.186;2022-12-18T20:01:17;-2.40;99.90
47921;DHT22;33686;48.770;9.186;2022-12-18T20:03:43;-2.40;99.90
47921;DHT22;33686;48.770;9.186;2022-12-18T20:06:28;-2.30;99.90
47921;DHT22;33686;48.770;9.186;2022-12-18T20:08:54;-2.30;99.90
47921;DHT22;33686;48.770;9.186;2022-12-18T20:11:20;-2.30;99.90
47921;DHT22;33686;48.770;9.186;2022-12-18T20:13:46;-2.20;99.90
47921;DHT22;33686;48.770;9.186;2022-12-18T20:16:12;-2.10;99.90
47921;DHT22;33686;48.770;9.186;2022-12-18T20:18:37;-2.10;99.90
47921;DHT22;33686;48.770;9.186;2022-12-18T20:21:03;-2.10;99.90
47921;DHT22;33686;48.770;9.186;2022-12-18T20:23:28;-2.20;99.90
47921;DHT22;33686;48.770;9.186;2022-12-18T20:25:54;-2.20;99.90
47921;DHT22;33686;48.770;9.186;2022-12-18T20:28:20;-2.20;99.90
47921;DHT22;33686;48.770;9.186;2022-12-18T20:30:46;-2.20;99.90
47921;DHT22;33686;48.770;9.186;2022-12-18T20:33:12;-2.20;99.90
47921;DHT22;33686;48.770;9.186;2022-12-18T20:35:38;-2.30;99.90
47921;DHT22;33686;48.770;9.186;2022-12-18T20:38:03;-2.30;99.90
47921;DHT22;33686;48.770;9.186;2022-12-18T20:40:29;-2.20;99.90
47921;DHT22;33686;48.770;9.186;2022-12-18T20:42:54;-2.30;99.90
47921;DHT22;33686;48.770;9.186;2022-12-18T20:45:20;-2.20;99.90
47921;DHT22;33686;48.770;9.186;2022-12-18T20:47:45;-2.20;99.90
47921;DHT22;33686;48.770;9.186;2022-12-18T20:50:11;-2.30;99.90
47921;DHT22;33686;48.770;9.186;2022-12-18T20:52:37;-2.20;99.90
47921;DHT22;33686;48.770;9.186;2022-12-18T20:55:03;-2.20;99.90
47921;DHT22;33686;48.770;9.186;2022-12-18T20:57:29;-2.10;99.90
47921;DHT22;33686;48.770;9.186;2022-12-18T20:59:54;-2.20;99.90
47921;DHT22;33686;48.770;9.186;2022-12-18T21:02:20;-2.10;99.90
47921;DHT22;33686;48.770;9.186;2022-12-18T21:04:46;-2.10;99.90
47921;DHT22;33686;48.770;9.186;2022-12-18T21:07:12;-2.10;99.90
47921;DHT22;33686;48.770;9.186;2022-12-18T21:09:37;-2.10;99.90
47921;DHT22;33686;48.770;9.186;2022-12-18T21:12:03;-2.10;99.90
47921;DHT22;33686;48.770;9.186;2022-12-18T21:14:47;-2.10;99.90
47921;DHT22;33686;48.770;9.186;2022-12-18T21:17:13;-1.90;99.90
47921;DHT22;33686;48.770;9.186;2022-12-18T21:19:38;-1.90;99.90
47921;DHT22;33686;48.770;9.186;2022-12-18T21:22:04;-1.80;99.90
47921;DHT22;33686;48.770;9.186;2022-12-18T21:24:29;-1.90;99.90
47921;DHT22;33686;48.770;9.186;2022-12-18T21:26:55;-1.90;99.90
47921;DHT22;33686;48.770;9.186;2022-12-18T21:29:22;-1.90;99.90
47921;DHT22;33686;48.770;9.186;2022-12-18T21:31:48;-1.90;99.90
47921;DHT22;33686;48.770;9.186;2022-12-18T21:34:17;-2.00;99.90
47921;DHT22;33686;48.770;9.186;2022-12-18T21:36:43;-2.00;99.90
47921;DHT22;33686;48.770;9.186;2022-12-18T21:39:09;-2.00;99.90
47921;DHT22;33686;48.770;9.186;2022-12-18T21:41:35;-2.00;99.90
47921;DHT22;33686;48.770;9.186;2022-12-18T21:44:19;-2.00;99.90
47921;DHT22;33686;48.770;9.186;2022-12-18T21:46:45;-2.00;99.90
47921;DHT22;33686;48.770;9.186;2022-12-18T21:49:11;-2.10;99.90
47921;DHT22;33686;48.770;9.186;2022-12-18T21:51:39;-2.00;99.90
47921;DHT22;33686;48.770;9.186;2022-12-18T21:54:05;-2.00;99.90
47921;DHT22;33686;48.770;9.186;2022-12-18T21:56:50;-2.00;99.90
47921;DHT22;33686;48.770;9.186;2022-12-18T21:59:17;-1.90;99.90
47921;DHT22;33686;48.770;9.186;2022-12-18T22:01:43;-1.80;99.90
47921;DHT22;33686;48.770;9.186;2022-12-18T22:04:09;-1.90;99.90
47921;DHT22;33686;48.770;9.186;2022-12-18T22:06:34;-1.80;99.90
47921;DHT22;33686;48.770;9.186;2022-12-18T22:09:00;-1.80;99.90
47921;DHT22;33686;48.770;9.186;2022-12-18T22:11:26;-1.90;99.90
47921;DHT22;33686;48.770;9.186;2022-12-18T22:13:51;-1.80;99.90
47921;DHT22;33686;48.770;9.186;2022-12-18T22:16:17;-2.00;99.90
47921;DHT22;33686;48.770;9.186;2022-12-18T22:18:42;-1.90;99.90
47921;DHT22;33686;48.770;9.186;2022-12-18T22:21:19;-1.90;99.90
47921;DHT22;33686;48.770;9.186;2022-12-18T22:23:50;-1.90;99.90
47921;DHT22;33686;48.770;9.186;2022-12-18T22:26:17;-1.90;99.90
47921;DHT22;33686;48.770;9.186;2022-12-18T22:28:42;-1.90;99.90
47921;DHT22;33686;48.770;9.186;2022-12-18T22:31:27;-1.80;99.90
47921;DHT22;33686;48.770;9.186;2022-12-18T22:33:52;-1.70;99.90
47921;DHT22;33686;48.770;9.186;2022-12-18T22:36:18;-1.80;99.90
47921;DHT22;33686;48.770;9.186;2022-12-18T22:38:45;-1.80;99.90
47921;DHT22;33686;48.770;9.186;2022-12-18T22:41:10;-1.80;99.90
47921;DHT22;33686;48.770;9.186;2022-12-18T22:43:36;-1.80;99.90
47921;DHT22;33686;48.770;9.186;2022-12-18T22:46:02;-1.80;99.90
47921;DHT22;33686;48.770;9.186;2022-12-18T22:48:27;-1.80;99.90
47921;DHT22;33686;48.770;9.186;2022-12-18T22:50:53;-1.80;99.90
47921;DHT22;33686;48.770;9.186;2022-12-18T22:53:19;-1.90;99.90
47921;DHT22;33686;48.770;9.186;2022-12-18T22:55:45;-1.80;99.90
47921;DHT22;33686;48.770;9.186;2022-12-18T22:58:10;-1.80;99.90
